sensor_id;sensor_type;location;lat;lon;timestamp;P1;durP1;ratioP1;P2;durP2;ratioP2
34405;SDS011;20658;45.630;8.886;2023-09-07T00:02:15;16.40;;;10.18;;
34405;SDS011;20658;45.630;8.886;2023-09-07T00:04:44;19.23;;;10.48;;
34405;SDS011;20658;45.630;8.886;2023-09-07T00:07:12;18.00;;;11.50;;
34405;SDS011;20658;45.630;8.886;2023-09-07T00:09:41;18.02;;;11.57;;
34405;SDS011;20658;45.630;8.886;2023-09-07T00:12:11;17.35;;;10.35;;
34405;SDS011;20658;45.630;8.886;2023-09-07T00:14:39;15.05;;;10.30;;
34405;SDS011;20658;45.630;8.886;2023-09-07T00:17:08;17.15;;;11.52;;
34405;SDS011;20658;45.630;8.886;2023-09-07T00:19:36;19.25;;;11.25;;
34405;SDS011;20658;45.630;8.886;2023-09-07T00:22:05;15.00;;;10.02;;
34405;SDS011;20658;45.630;8.886;2023-09-07T00:24:33;17.90;;;10.50;;
34405;SDS011;20658;45.630;8.886;2023-09-07T00:27:02;16.70;;;10.65;;
34405;SDS011;20658;45.630;8.886;2023-09-07T00:29:38;16.77;;;10.50;;
34405;SDS011;20658;45.630;8.886;2023-09-07T00:32:07;17.13;;;10.27;;
34405;SDS011;20658;45.630;8.886;2023-09-07T00:34:35;16.48;;;10.88;;
34405;SDS011;20658;45.630;8.886;2023-09-07T00:37:04;18.27;;;10.20;;
34405;SDS011;20658;45.630;8.886;2023-09-07T00:39:37;15.02;;;9.23;;
34405;SDS011;20658;45.630;8.886;2023-09-07T00:42:05;17.10;;;9.75;;
34405;SDS011;20658;45.630;8.886;2023-09-07T00:44:34;17.42;;;10.65;;
34405;SDS011;20658;45.630;8.886;2023-09-07T00:47:04;15.52;;;9.52;;
34405;SDS011;20658;45.630;8.886;2023-09-07T00:49:33;17.63;;;9.82;;
34405;SDS011;20658;45.630;8.886;2023-09-07T00:52:01;18.88;;;8.77;;
34405;SDS011;20658;45.630;8.886;2023-09-07T00:54:32;13.35;;;8.98;;
34405;SDS011;20658;45.630;8.886;2023-09-07T00:57:00;17.02;;;9.52;;
34405;SDS011;20658;45.630;8.886;2023-09-07T00:59:29;15.43;;;9.40;;
34405;SDS011;20658;45.630;8.886;2023-09-07T01:01:59;16.75;;;9.15;;
34405;SDS011;20658;45.630;8.886;2023-09-07T01:04:29;17.85;;;10.10;;
34405;SDS011;20658;45.630;8.886;2023-09-07T01:07:02;14.27;;;8.68;;
34405;SDS011;20658;45.630;8.886;2023-09-07T01:09:40;14.57;;;9.43;;
34405;SDS011;20658;45.630;8.886;2023-09-07T01:12:13;14.85;;;9.98;;
34405;SDS011;20658;45.630;8.886;2023-09-07T01:14:47;15.90;;;9.98;;
34405;SDS011;20658;45.630;8.886;2023-09-07T01:17:16;18.83;;;10.65;;
34405;SDS011;20658;45.630;8.886;2023-09-07T01:19:47;15.68;;;10.48;;
34405;SDS011;20658;45.630;8.886;2023-09-07T01:22:19;19.83;;;10.65;;
34405;SDS011;20658;45.630;8.886;2023-09-07T01:24:50;16.15;;;9.80;;
34405;SDS011;20658;45.630;8.886;2023-09-07T01:27:19;15.85;;;10.02;;
34405;SDS011;20658;45.630;8.886;2023-09-07T01:29:48;14.98;;;9.85;;
34405;SDS011;20658;45.630;8.886;2023-09-07T01:32:17;17.13;;;9.90;;
34405;SDS011;20658;45.630;8.886;2023-09-07T01:34:45;14.07;;;9.85;;
34405;SDS011;20658;45.630;8.886;2023-09-07T01:37:20;16.17;;;11.02;;
34405;SDS011;20658;45.630;8.886;2023-09-07T01:39:49;17.38;;;9.80;;
34405;SDS011;20658;45.630;8.886;2023-09-07T01:42:17;13.98;;;10.30;;
34405;SDS011;20658;45.630;8.886;2023-09-07T01:44:48;16.50;;;9.40;;
34405;SDS011;20658;45.630;8.886;2023-09-07T01:47:16;17.83;;;11.23;;
34405;SDS011;20658;45.630;8.886;2023-09-07T01:49:45;17.23;;;11.05;;
34405;SDS011;20658;45.630;8.886;2023-09-07T01:52:14;16.38;;;10.50;;
34405;SDS011;20658;45.630;8.886;2023-09-07T01:54:44;18.75;;;10.88;;
34405;SDS011;20658;45.630;8.886;2023-09-07T01:57:17;15.77;;;10.63;;
34405;SDS011;20658;45.630;8.886;2023-09-07T01:59:46;14.45;;;9.98;;
34405;SDS011;20658;45.630;8.886;2023-09-07T02:02:15;21.05;;;9.20;;
34405;SDS011;20658;45.630;8.886;2023-09-07T02:04:44;16.02;;;9.15;;
34405;SDS011;20658;45.630;8.886;2023-09-07T02:07:13;17.95;;;9.73;;
34405;SDS011;20658;45.630;8.886;2023-09-07T02:09:41;15.45;;;9.15;;
34405;SDS011;20658;45.630;8.886;2023-09-07T02:12:11;15.27;;;8.85;;
34405;SDS011;20658;45.630;8.886;2023-09-07T02:14:40;13.90;;;10.00;;
34405;SDS011;20658;45.630;8.886;2023-09-07T02:17:09;14.85;;;9.65;;
34405;SDS011;20658;45.630;8.886;2023-09-07T02:19:40;18.98;;;11.25;;
34405;SDS011;20658;45.630;8.886;2023-09-07T02:22:09;14.23;;;9.57;;
34405;SDS011;20658;45.630;8.886;2023-09-07T02:24:38;14.35;;;10.20;;
34405;SDS011;20658;45.630;8.886;2023-09-07T02:27:08;16.38;;;10.10;;
34405;SDS011;20658;45.630;8.886;2023-09-07T02:29:36;15.38;;;10.48;;
34405;SDS011;20658;45.630;8.886;2023-09-07T02:32:05;20.42;;;10.85;;
34405;SDS011;20658;45.630;8.886;2023-09-07T02:34:35;17.92;;;11.05;;
34405;SDS011;20658;45.630;8.886;2023-09-07T02:37:04;17.45;;;9.95;;
34405;SDS011;20658;45.630;8.886;2023-09-07T02:39:34;16.97;;;10.57;;
34405;SDS011;20658;45.630;8.886;2023-09-07T02:42:03;17.85;;;11.10;;
34405;SDS011;20658;45.630;8.886;2023-09-07T02:44:33;18.83;;;11.43;;
34405;SDS011;20658;45.630;8.886;2023-09-07T02:47:03;17.67;;;11.07;;
34405;SDS011;20658;45.630;8.886;2023-09-07T02:49:32;15.98;;;11.20;;
34405;SDS011;20658;45.630;8.886;2023-09-07T02:52:00;15.10;;;10.52;;
34405;SDS011;20658;45.630;8.886;2023-09-07T02:54:29;19.25;;;10.52;;
34405;SDS011;20658;45.630;8.886;2023-09-07T02:56:57;22.70;;;11.02;;
34405;SDS011;20658;45.630;8.886;2023-09-07T02:59:26;15.80;;;10.70;;
34405;SDS011;20658;45.630;8.886;2023-09-07T03:01:57;17.88;;;11.30;;
34405;SDS011;20658;45.630;8.886;2023-09-07T03:04:26;18.02;;;11.77;;
34405;SDS011;20658;45.630;8.886;2023-09-07T03:06:55;15.93;;;11.07;;
34405;SDS011;20658;45.630;8.886;2023-09-07T03:09:25;16.08;;;9.43;;
34405;SDS011;20658;45.630;8.886;2023-09-07T03:11:58;15.63;;;9.68;;
34405;SDS011;20658;45.630;8.886;2023-09-07T03:14:32;16.50;;;10.40;;
34405;SDS011;20658;45.630;8.886;2023-09-07T03:17:07;20.40;;;11.48;;
34405;SDS011;20658;45.630;8.886;2023-09-07T03:19:41;17.48;;;9.90;;
34405;SDS011;20658;45.630;8.886;2023-09-07T03:22:15;17.02;;;10.80;;
34405;SDS011;20658;45.630;8.886;2023-09-07T03:24:49;16.80;;;11.18;;
34405;SDS011;20658;45.630;8.886;2023-09-07T03:27:24;20.35;;;11.90;;
34405;SDS011;20658;45.630;8.886;2023-09-07T03:29:57;20.15;;;10.20;;
34405;SDS011;20658;45.630;8.886;2023-09-07T03:32:32;15.85;;;10.90;;
34405;SDS011;20658;45.630;8.886;2023-09-07T03:35:06;15.88;;;10.57;;
34405;SDS011;20658;45.630;8.886;2023-09-07T03:37:37;12.60;;;9.38;;
34405;SDS011;20658;45.630;8.886;2023-09-07T03:40:06;17.58;;;10.13;;
34405;SDS011;20658;45.630;8.886;2023-09-07T03:42:38;16.85;;;9.95;;
34405;SDS011;20658;45.630;8.886;2023-09-07T03:45:08;13.55;;;8.63;;
34405;SDS011;20658;45.630;8.886;2023-09-07T03:47:38;18.15;;;9.02;;
34405;SDS011;20658;45.630;8.886;2023-09-07T03:52:37;17.55;;;9.32;;
34405;SDS011;20658;45.630;8.886;2023-09-07T03:55:07;15.23;;;9.77;;
34405;SDS011;20658;45.630;8.886;2023-09-07T03:57:37;13.48;;;9.02;;
34405;SDS011;20658;45.630;8.886;2023-09-07T04:00:06;17.63;;;9.80;;
34405;SDS011;20658;45.630;8.886;2023-09-07T04:02:40;17.05;;;9.20;;
34405;SDS011;20658;45.630;8.886;2023-09-07T04:05:09;13.77;;;9.05;;
34405;SDS011;20658;45.630;8.886;2023-09-07T04:07:38;16.27;;;8.57;;
34405;SDS011;20658;45.630;8.886;2023-09-07T04:10:08;17.08;;;9.25;;
34405;SDS011;20658;45.630;8.886;2023-09-07T04:12:37;15.15;;;9.23;;
34405;SDS011;20658;45.630;8.886;2023-09-07T04:15:06;15.20;;;9.55;;
34405;SDS011;20658;45.630;8.886;2023-09-07T04:17:36;20.42;;;10.90;;
34405;SDS011;20658;45.630;8.886;2023-09-07T04:20:09;16.08;;;10.23;;
34405;SDS011;20658;45.630;8.886;2023-09-07T04:22:43;15.20;;;10.07;;
34405;SDS011;20658;45.630;8.886;2023-09-07T04:25:17;17.92;;;10.82;;
34405;SDS011;20658;45.630;8.886;2023-09-07T04:27:46;20.25;;;10.77;;
34405;SDS011;20658;45.630;8.886;2023-09-07T04:30:14;18.77;;;10.82;;
34405;SDS011;20658;45.630;8.886;2023-09-07T04:32:43;17.77;;;11.02;;
34405;SDS011;20658;45.630;8.886;2023-09-07T04:35:13;20.38;;;11.48;;
34405;SDS011;20658;45.630;8.886;2023-09-07T04:37:47;17.55;;;10.20;;
34405;SDS011;20658;45.630;8.886;2023-09-07T04:40:15;13.75;;;9.40;;
34405;SDS011;20658;45.630;8.886;2023-09-07T04:42:43;15.00;;;9.90;;
34405;SDS011;20658;45.630;8.886;2023-09-07T04:45:12;17.48;;;9.52;;
34405;SDS011;20658;45.630;8.886;2023-09-07T04:47:41;17.50;;;9.68;;
34405;SDS011;20658;45.630;8.886;2023-09-07T04:50:10;15.80;;;9.52;;
34405;SDS011;20658;45.630;8.886;2023-09-07T04:52:41;14.00;;;9.43;;
34405;SDS011;20658;45.630;8.886;2023-09-07T04:55:09;15.32;;;9.15;;
34405;SDS011;20658;45.630;8.886;2023-09-07T04:57:38;16.52;;;8.88;;
34405;SDS011;20658;45.630;8.886;2023-09-07T05:00:11;15.90;;;9.07;;
34405;SDS011;20658;45.630;8.886;2023-09-07T05:02:41;16.88;;;10.07;;
34405;SDS011;20658;45.630;8.886;2023-09-07T05:05:09;17.38;;;8.93;;
34405;SDS011;20658;45.630;8.886;2023-09-07T05:07:39;18.60;;;8.98;;
34405;SDS011;20658;45.630;8.886;2023-09-07T05:10:08;14.73;;;8.20;;
34405;SDS011;20658;45.630;8.886;2023-09-07T05:12:38;15.57;;;8.93;;
34405;SDS011;20658;45.630;8.886;2023-09-07T05:15:08;15.52;;;8.80;;
34405;SDS011;20658;45.630;8.886;2023-09-07T05:17:42;14.05;;;8.50;;
34405;SDS011;20658;45.630;8.886;2023-09-07T05:20:11;13.57;;;8.18;;
34405;SDS011;20658;45.630;8.886;2023-09-07T05:22:41;12.27;;;7.88;;
34405;SDS011;20658;45.630;8.886;2023-09-07T05:25:10;15.10;;;8.75;;
34405;SDS011;20658;45.630;8.886;2023-09-07T05:27:39;14.43;;;7.97;;
34405;SDS011;20658;45.630;8.886;2023-09-07T05:30:12;12.82;;;8.40;;
34405;SDS011;20658;45.630;8.886;2023-09-07T05:32:46;15.63;;;8.50;;
34405;SDS011;20658;45.630;8.886;2023-09-07T05:35:15;17.65;;;9.10;;
34405;SDS011;20658;45.630;8.886;2023-09-07T05:37:50;13.95;;;8.23;;
34405;SDS011;20658;45.630;8.886;2023-09-07T05:40:18;14.80;;;8.43;;
34405;SDS011;20658;45.630;8.886;2023-09-07T05:42:47;14.35;;;8.73;;
34405;SDS011;20658;45.630;8.886;2023-09-07T05:45:15;13.60;;;7.95;;
34405;SDS011;20658;45.630;8.886;2023-09-07T05:47:49;16.20;;;8.38;;
34405;SDS011;20658;45.630;8.886;2023-09-07T05:50:18;15.95;;;8.50;;
34405;SDS011;20658;45.630;8.886;2023-09-07T05:52:52;16.48;;;8.50;;
34405;SDS011;20658;45.630;8.886;2023-09-07T05:55:21;13.43;;;7.57;;
34405;SDS011;20658;45.630;8.886;2023-09-07T05:57:55;22.52;;;8.95;;
34405;SDS011;20658;45.630;8.886;2023-09-07T06:00:26;14.57;;;8.40;;
34405;SDS011;20658;45.630;8.886;2023-09-07T06:02:55;20.27;;;9.88;;
34405;SDS011;20658;45.630;8.886;2023-09-07T06:05:29;16.15;;;8.88;;
34405;SDS011;20658;45.630;8.886;2023-09-07T06:08:06;14.75;;;9.32;;
34405;SDS011;20658;45.630;8.886;2023-09-07T06:10:36;17.08;;;9.50;;
34405;SDS011;20658;45.630;8.886;2023-09-07T06:13:05;15.48;;;9.57;;
34405;SDS011;20658;45.630;8.886;2023-09-07T06:15:34;15.40;;;10.02;;
34405;SDS011;20658;45.630;8.886;2023-09-07T06:18:03;14.90;;;9.43;;
34405;SDS011;20658;45.630;8.886;2023-09-07T06:20:32;14.57;;;8.73;;
34405;SDS011;20658;45.630;8.886;2023-09-07T06:23:02;14.23;;;8.52;;
34405;SDS011;20658;45.630;8.886;2023-09-07T06:25:33;14.25;;;8.32;;
34405;SDS011;20658;45.630;8.886;2023-09-07T06:28:01;16.52;;;8.10;;
34405;SDS011;20658;45.630;8.886;2023-09-07T06:30:30;16.75;;;8.60;;
34405;SDS011;20658;45.630;8.886;2023-09-07T06:32:59;16.95;;;8.35;;
34405;SDS011;20658;45.630;8.886;2023-09-07T06:35:29;14.32;;;7.50;;
34405;SDS011;20658;45.630;8.886;2023-09-07T06:37:57;15.25;;;7.75;;
34405;SDS011;20658;45.630;8.886;2023-09-07T06:40:26;16.63;;;8.45;;
34405;SDS011;20658;45.630;8.886;2023-09-07T06:42:58;20.13;;;8.30;;
34405;SDS011;20658;45.630;8.886;2023-09-07T06:45:27;18.95;;;7.78;;
34405;SDS011;20658;45.630;8.886;2023-09-07T06:47:56;12.43;;;7.68;;
34405;SDS011;20658;45.630;8.886;2023-09-07T06:50:25;16.48;;;8.23;;
34405;SDS011;20658;45.630;8.886;2023-09-07T06:52:54;15.23;;;8.10;;
34405;SDS011;20658;45.630;8.886;2023-09-07T06:55:22;21.27;;;8.30;;
34405;SDS011;20658;45.630;8.886;2023-09-07T06:57:53;16.65;;;8.40;;
34405;SDS011;20658;45.630;8.886;2023-09-07T07:00:23;18.08;;;8.43;;
34405;SDS011;20658;45.630;8.886;2023-09-07T07:02:51;12.65;;;7.93;;
34405;SDS011;20658;45.630;8.886;2023-09-07T07:05:20;11.95;;;6.93;;
34405;SDS011;20658;45.630;8.886;2023-09-07T07:07:50;15.27;;;7.55;;
34405;SDS011;20658;45.630;8.886;2023-09-07T07:10:18;16.77;;;8.50;;
34405;SDS011;20658;45.630;8.886;2023-09-07T07:12:47;13.82;;;8.18;;
34405;SDS011;20658;45.630;8.886;2023-09-07T07:15:21;17.65;;;8.15;;
34405;SDS011;20658;45.630;8.886;2023-09-07T07:17:55;21.60;;;8.88;;
34405;SDS011;20658;45.630;8.886;2023-09-07T07:20:24;15.30;;;7.65;;
34405;SDS011;20658;45.630;8.886;2023-09-07T07:22:52;15.68;;;8.38;;
34405;SDS011;20658;45.630;8.886;2023-09-07T07:25:26;14.80;;;8.18;;
34405;SDS011;20658;45.630;8.886;2023-09-07T07:28:02;12.18;;;7.53;;
34405;SDS011;20658;45.630;8.886;2023-09-07T07:30:34;16.27;;;9.13;;
34405;SDS011;20658;45.630;8.886;2023-09-07T07:33:04;14.02;;;8.55;;
34405;SDS011;20658;45.630;8.886;2023-09-07T07:35:34;14.38;;;8.63;;
34405;SDS011;20658;45.630;8.886;2023-09-07T07:38:04;15.82;;;8.70;;
34405;SDS011;20658;45.630;8.886;2023-09-07T07:40:35;13.18;;;8.55;;
34405;SDS011;20658;45.630;8.886;2023-09-07T07:43:09;17.80;;;10.60;;
34405;SDS011;20658;45.630;8.886;2023-09-07T07:45:41;20.02;;;10.43;;
34405;SDS011;20658;45.630;8.886;2023-09-07T07:48:15;17.73;;;9.77;;
34405;SDS011;20658;45.630;8.886;2023-09-07T07:50:44;18.08;;;9.55;;
34405;SDS011;20658;45.630;8.886;2023-09-07T07:53:17;13.30;;;7.78;;
34405;SDS011;20658;45.630;8.886;2023-09-07T07:55:51;16.70;;;7.85;;
34405;SDS011;20658;45.630;8.886;2023-09-07T07:58:24;11.38;;;5.88;;
34405;SDS011;20658;45.630;8.886;2023-09-07T08:00:59;13.45;;;6.45;;
34405;SDS011;20658;45.630;8.886;2023-09-07T08:03:30;12.40;;;6.07;;
34405;SDS011;20658;45.630;8.886;2023-09-07T08:06:04;14.18;;;6.03;;
34405;SDS011;20658;45.630;8.886;2023-09-07T08:08:32;16.75;;;6.85;;
34405;SDS011;20658;45.630;8.886;2023-09-07T08:11:06;19.60;;;7.32;;
34405;SDS011;20658;45.630;8.886;2023-09-07T08:13:40;14.77;;;6.93;;
34405;SDS011;20658;45.630;8.886;2023-09-07T08:16:21;12.57;;;6.00;;
34405;SDS011;20658;45.630;8.886;2023-09-07T08:18:55;18.83;;;7.93;;
34405;SDS011;20658;45.630;8.886;2023-09-07T08:21:23;10.70;;;6.20;;
34405;SDS011;20658;45.630;8.886;2023-09-07T08:23:57;15.65;;;6.45;;
34405;SDS011;20658;45.630;8.886;2023-09-07T08:26:31;13.15;;;6.50;;
34405;SDS011;20658;45.630;8.886;2023-09-07T08:29:00;12.48;;;6.68;;
34405;SDS011;20658;45.630;8.886;2023-09-07T08:31:38;9.48;;;5.65;;
34405;SDS011;20658;45.630;8.886;2023-09-07T08:34:07;13.63;;;6.22;;
34405;SDS011;20658;45.630;8.886;2023-09-07T08:36:42;13.45;;;6.22;;
34405;SDS011;20658;45.630;8.886;2023-09-07T08:39:16;14.82;;;6.13;;
34405;SDS011;20658;45.630;8.886;2023-09-07T08:41:50;13.65;;;5.90;;
34405;SDS011;20658;45.630;8.886;2023-09-07T08:44:24;10.90;;;5.93;;
34405;SDS011;20658;45.630;8.886;2023-09-07T08:47:01;10.70;;;5.80;;
34405;SDS011;20658;45.630;8.886;2023-09-07T08:49:36;13.45;;;6.35;;
34405;SDS011;20658;45.630;8.886;2023-09-07T08:52:09;16.48;;;5.63;;
34405;SDS011;20658;45.630;8.886;2023-09-07T08:54:43;13.38;;;5.50;;
34405;SDS011;20658;45.630;8.886;2023-09-07T08:57:14;13.55;;;4.95;;
34405;SDS011;20658;45.630;8.886;2023-09-07T08:59:49;13.30;;;5.88;;
34405;SDS011;20658;45.630;8.886;2023-09-07T09:02:23;18.33;;;6.30;;
34405;SDS011;20658;45.630;8.886;2023-09-07T09:04:57;20.25;;;5.78;;
34405;SDS011;20658;45.630;8.886;2023-09-07T09:07:30;11.75;;;4.40;;
34405;SDS011;20658;45.630;8.886;2023-09-07T09:10:04;9.80;;;4.57;;
34405;SDS011;20658;45.630;8.886;2023-09-07T09:12:34;14.73;;;5.50;;
34405;SDS011;20658;45.630;8.886;2023-09-07T09:15:08;10.98;;;5.80;;
34405;SDS011;20658;45.630;8.886;2023-09-07T09:17:43;13.25;;;6.15;;
34405;SDS011;20658;45.630;8.886;2023-09-07T09:20:20;12.93;;;6.00;;
34405;SDS011;20658;45.630;8.886;2023-09-07T09:22:55;15.63;;;7.13;;
34405;SDS011;20658;45.630;8.886;2023-09-07T09:25:23;10.55;;;5.47;;
34405;SDS011;20658;45.630;8.886;2023-09-07T09:27:58;15.95;;;6.78;;
34405;SDS011;20658;45.630;8.886;2023-09-07T09:30:26;12.15;;;6.18;;
34405;SDS011;20658;45.630;8.886;2023-09-07T09:32:56;19.88;;;6.45;;
34405;SDS011;20658;45.630;8.886;2023-09-07T09:35:31;16.52;;;5.40;;
34405;SDS011;20658;45.630;8.886;2023-09-07T09:38:04;13.93;;;5.45;;
34405;SDS011;20658;45.630;8.886;2023-09-07T09:40:33;11.82;;;6.30;;
34405;SDS011;20658;45.630;8.886;2023-09-07T09:43:09;9.98;;;5.72;;
34405;SDS011;20658;45.630;8.886;2023-09-07T09:45:43;10.40;;;4.93;;
34405;SDS011;20658;45.630;8.886;2023-09-07T09:48:19;12.43;;;4.97;;
34405;SDS011;20658;45.630;8.886;2023-09-07T09:50:53;10.18;;;5.60;;
34405;SDS011;20658;45.630;8.886;2023-09-07T09:53:22;16.40;;;6.78;;
34405;SDS011;20658;45.630;8.886;2023-09-07T09:55:53;12.05;;;6.10;;
34405;SDS011;20658;45.630;8.886;2023-09-07T09:58:21;12.63;;;7.10;;
34405;SDS011;20658;45.630;8.886;2023-09-07T10:00:56;16.00;;;6.22;;
34405;SDS011;20658;45.630;8.886;2023-09-07T10:03:33;11.93;;;5.25;;
34405;SDS011;20658;45.630;8.886;2023-09-07T10:06:19;13.50;;;6.63;;
34405;SDS011;20658;45.630;8.886;2023-09-07T10:08:54;9.52;;;5.78;;
34405;SDS011;20658;45.630;8.886;2023-09-07T10:11:31;14.02;;;5.90;;
34405;SDS011;20658;45.630;8.886;2023-09-07T10:14:08;13.07;;;6.82;;
34405;SDS011;20658;45.630;8.886;2023-09-07T10:16:42;13.43;;;6.78;;
34405;SDS011;20658;45.630;8.886;2023-09-07T10:19:19;15.00;;;7.07;;
34405;SDS011;20658;45.630;8.886;2023-09-07T10:21:54;20.73;;;6.30;;
34405;SDS011;20658;45.630;8.886;2023-09-07T10:24:28;10.65;;;4.85;;
34405;SDS011;20658;45.630;8.886;2023-09-07T10:27:02;16.33;;;6.18;;
34405;SDS011;20658;45.630;8.886;2023-09-07T10:29:40;14.07;;;5.97;;
34405;SDS011;20658;45.630;8.886;2023-09-07T10:32:14;14.63;;;7.13;;
34405;SDS011;20658;45.630;8.886;2023-09-07T10:34:49;14.23;;;7.10;;
34405;SDS011;20658;45.630;8.886;2023-09-07T10:37:18;12.65;;;6.95;;
34405;SDS011;20658;45.630;8.886;2023-09-07T10:39:51;15.68;;;8.52;;
34405;SDS011;20658;45.630;8.886;2023-09-07T10:42:22;12.20;;;7.57;;
34405;SDS011;20658;45.630;8.886;2023-09-07T10:45:07;12.63;;;7.55;;
34405;SDS011;20658;45.630;8.886;2023-09-07T10:47:44;12.05;;;6.45;;
34405;SDS011;20658;45.630;8.886;2023-09-07T10:50:20;12.60;;;8.30;;
34405;SDS011;20658;45.630;8.886;2023-09-07T10:52:56;14.15;;;9.35;;
34405;SDS011;20658;45.630;8.886;2023-09-07T10:55:35;13.88;;;7.85;;
34405;SDS011;20658;45.630;8.886;2023-09-07T10:58:06;12.00;;;7.28;;
34405;SDS011;20658;45.630;8.886;2023-09-07T11:00:40;13.88;;;8.25;;
34405;SDS011;20658;45.630;8.886;2023-09-07T11:03:08;16.42;;;8.15;;
34405;SDS011;20658;45.630;8.886;2023-09-07T11:05:44;17.42;;;9.30;;
34405;SDS011;20658;45.630;8.886;2023-09-07T11:08:18;17.75;;;8.63;;
34405;SDS011;20658;45.630;8.886;2023-09-07T11:10:52;16.35;;;9.05;;
34405;SDS011;20658;45.630;8.886;2023-09-07T11:13:21;19.50;;;10.10;;
34405;SDS011;20658;45.630;8.886;2023-09-07T11:15:53;16.33;;;9.00;;
34405;SDS011;20658;45.630;8.886;2023-09-07T11:18:28;15.95;;;8.63;;
34405;SDS011;20658;45.630;8.886;2023-09-07T11:21:04;17.33;;;10.93;;
34405;SDS011;20658;45.630;8.886;2023-09-07T11:23:38;17.67;;;10.63;;
34405;SDS011;20658;45.630;8.886;2023-09-07T11:26:07;16.40;;;10.30;;
34405;SDS011;20658;45.630;8.886;2023-09-07T11:28:41;12.77;;;8.10;;
34405;SDS011;20658;45.630;8.886;2023-09-07T11:31:09;19.33;;;9.45;;
34405;SDS011;20658;45.630;8.886;2023-09-07T11:33:43;24.92;;;9.20;;
34405;SDS011;20658;45.630;8.886;2023-09-07T11:36:18;14.82;;;9.50;;
34405;SDS011;20658;45.630;8.886;2023-09-07T11:38:54;25.52;;;9.90;;
34405;SDS011;20658;45.630;8.886;2023-09-07T11:41:23;16.85;;;9.68;;
34405;SDS011;20658;45.630;8.886;2023-09-07T11:43:56;10.20;;;6.75;;
34405;SDS011;20658;45.630;8.886;2023-09-07T11:46:30;17.00;;;8.05;;
34405;SDS011;20658;45.630;8.886;2023-09-07T11:49:03;14.32;;;7.50;;
34405;SDS011;20658;45.630;8.886;2023-09-07T11:51:38;15.00;;;8.13;;
34405;SDS011;20658;45.630;8.886;2023-09-07T11:54:12;16.23;;;6.00;;
34405;SDS011;20658;45.630;8.886;2023-09-07T11:56:40;12.73;;;6.80;;
34405;SDS011;20658;45.630;8.886;2023-09-07T11:59:15;14.02;;;5.88;;
34405;SDS011;20658;45.630;8.886;2023-09-07T12:01:49;20.33;;;6.35;;
34405;SDS011;20658;45.630;8.886;2023-09-07T12:04:22;18.85;;;6.80;;
34405;SDS011;20658;45.630;8.886;2023-09-07T12:06:57;12.70;;;5.43;;
34405;SDS011;20658;45.630;8.886;2023-09-07T12:09:31;14.95;;;6.20;;
34405;SDS011;20658;45.630;8.886;2023-09-07T12:12:04;15.32;;;6.47;;
34405;SDS011;20658;45.630;8.886;2023-09-07T12:14:38;14.10;;;6.10;;
34405;SDS011;20658;45.630;8.886;2023-09-07T12:17:12;11.18;;;6.18;;
34405;SDS011;20658;45.630;8.886;2023-09-07T12:19:45;15.77;;;8.38;;
34405;SDS011;20658;45.630;8.886;2023-09-07T12:22:15;10.50;;;5.90;;
34405;SDS011;20658;45.630;8.886;2023-09-07T12:24:49;12.35;;;5.97;;
34405;SDS011;20658;45.630;8.886;2023-09-07T12:27:22;9.90;;;5.85;;
34405;SDS011;20658;45.630;8.886;2023-09-07T12:29:51;11.60;;;5.68;;
34405;SDS011;20658;45.630;8.886;2023-09-07T12:32:24;13.25;;;5.72;;
34405;SDS011;20658;45.630;8.886;2023-09-07T12:34:58;12.27;;;5.90;;
34405;SDS011;20658;45.630;8.886;2023-09-07T12:37:28;11.38;;;6.10;;
34405;SDS011;20658;45.630;8.886;2023-09-07T12:39:57;12.05;;;5.93;;
34405;SDS011;20658;45.630;8.886;2023-09-07T12:42:25;11.40;;;6.15;;
34405;SDS011;20658;45.630;8.886;2023-09-07T12:44:54;10.15;;;5.97;;
34405;SDS011;20658;45.630;8.886;2023-09-07T12:47:22;12.98;;;5.50;;
34405;SDS011;20658;45.630;8.886;2023-09-07T12:49:51;11.52;;;7.00;;
34405;SDS011;20658;45.630;8.886;2023-09-07T12:52:19;13.75;;;7.00;;
34405;SDS011;20658;45.630;8.886;2023-09-07T12:54:50;12.30;;;5.22;;
34405;SDS011;20658;45.630;8.886;2023-09-07T12:57:23;13.27;;;5.43;;
34405;SDS011;20658;45.630;8.886;2023-09-07T12:59:52;12.98;;;6.68;;
34405;SDS011;20658;45.630;8.886;2023-09-07T13:02:20;9.80;;;6.00;;
34405;SDS011;20658;45.630;8.886;2023-09-07T13:04:48;11.68;;;6.35;;
34405;SDS011;20658;45.630;8.886;2023-09-07T13:07:17;11.48;;;5.53;;
34405;SDS011;20658;45.630;8.886;2023-09-07T13:09:46;11.88;;;5.78;;
34405;SDS011;20658;45.630;8.886;2023-09-07T13:12:15;12.98;;;6.53;;
34405;SDS011;20658;45.630;8.886;2023-09-07T13:14:44;8.82;;;4.85;;
34405;SDS011;20658;45.630;8.886;2023-09-07T13:17:13;12.05;;;5.97;;
34405;SDS011;20658;45.630;8.886;2023-09-07T13:19:42;17.40;;;6.15;;
34405;SDS011;20658;45.630;8.886;2023-09-07T13:22:11;11.23;;;5.50;;
34405;SDS011;20658;45.630;8.886;2023-09-07T13:24:40;10.88;;;5.55;;
34405;SDS011;20658;45.630;8.886;2023-09-07T13:27:08;11.52;;;6.15;;
34405;SDS011;20658;45.630;8.886;2023-09-07T13:29:39;11.57;;;6.45;;
34405;SDS011;20658;45.630;8.886;2023-09-07T13:32:07;15.82;;;5.40;;
34405;SDS011;20658;45.630;8.886;2023-09-07T13:34:36;14.77;;;5.63;;
34405;SDS011;20658;45.630;8.886;2023-09-07T13:37:04;10.00;;;5.72;;
34405;SDS011;20658;45.630;8.886;2023-09-07T13:39:33;11.02;;;5.55;;
34405;SDS011;20658;45.630;8.886;2023-09-07T13:42:01;11.02;;;5.25;;
34405;SDS011;20658;45.630;8.886;2023-09-07T13:44:30;11.07;;;4.53;;
34405;SDS011;20658;45.630;8.886;2023-09-07T13:47:00;10.93;;;5.40;;
34405;SDS011;20658;45.630;8.886;2023-09-07T13:49:28;6.68;;;4.43;;
34405;SDS011;20658;45.630;8.886;2023-09-07T13:51:57;18.00;;;5.47;;
34405;SDS011;20658;45.630;8.886;2023-09-07T13:54:30;10.13;;;5.30;;
34405;SDS011;20658;45.630;8.886;2023-09-07T13:56:59;11.00;;;5.55;;
34405;SDS011;20658;45.630;8.886;2023-09-07T13:59:27;15.40;;;5.50;;
34405;SDS011;20658;45.630;8.886;2023-09-07T14:04:28;10.10;;;4.80;;
34405;SDS011;20658;45.630;8.886;2023-09-07T14:06:58;9.30;;;5.10;;
34405;SDS011;20658;45.630;8.886;2023-09-07T14:09:26;11.52;;;5.38;;
34405;SDS011;20658;45.630;8.886;2023-09-07T14:11:55;15.57;;;6.97;;
34405;SDS011;20658;45.630;8.886;2023-09-07T14:14:23;12.35;;;6.18;;
34405;SDS011;20658;45.630;8.886;2023-09-07T14:16:52;13.18;;;6.53;;
34405;SDS011;20658;45.630;8.886;2023-09-07T14:19:24;10.82;;;5.72;;
34405;SDS011;20658;45.630;8.886;2023-09-07T14:21:54;14.05;;;6.55;;
34405;SDS011;20658;45.630;8.886;2023-09-07T14:24:22;14.07;;;6.50;;
34405;SDS011;20658;45.630;8.886;2023-09-07T14:26:51;8.35;;;6.35;;
34405;SDS011;20658;45.630;8.886;2023-09-07T14:29:19;11.15;;;5.80;;
34405;SDS011;20658;45.630;8.886;2023-09-07T14:31:48;9.63;;;5.25;;
34405;SDS011;20658;45.630;8.886;2023-09-07T14:34:16;9.15;;;5.78;;
34405;SDS011;20658;45.630;8.886;2023-09-07T14:36:46;10.95;;;5.60;;
34405;SDS011;20658;45.630;8.886;2023-09-07T14:39:15;10.05;;;5.38;;
34405;SDS011;20658;45.630;8.886;2023-09-07T14:41:50;11.55;;;6.25;;
34405;SDS011;20658;45.630;8.886;2023-09-07T14:44:20;12.25;;;6.20;;
34405;SDS011;20658;45.630;8.886;2023-09-07T14:46:48;11.85;;;5.65;;
34405;SDS011;20658;45.630;8.886;2023-09-07T14:49:17;13.88;;;7.07;;
34405;SDS011;20658;45.630;8.886;2023-09-07T14:51:48;14.93;;;6.47;;
34405;SDS011;20658;45.630;8.886;2023-09-07T14:54:17;12.20;;;6.55;;
34405;SDS011;20658;45.630;8.886;2023-09-07T14:56:45;10.57;;;5.78;;
34405;SDS011;20658;45.630;8.886;2023-09-07T14:59:14;11.65;;;5.88;;
34405;SDS011;20658;45.630;8.886;2023-09-07T15:01:42;15.73;;;6.50;;